Time;durP1;ratioP1;P1;durP2;ratioP2;P2;SDS_P1;SDS_P2;PMS_P1;PMS_P2;Temp;Humidity;BMP_temperature;BMP_pressure;BME280_temperature;BME280_humidity;BME280_pressure;Samples;Min_cycle;Max_cycle;Signal;HPM_P1;HPM_P2
2022/08/28 00:00:33;;;;;;;0.00;0.00;;;19.20;99.90;;;;;;5054764;28;20021;-73
2022/08/28 00:02:59;;;;;;;0.00;0.00;;;19.20;99.90;;;;;;5054937;28;20060;-73
2022/08/28 00:05:27;;;;;;;0.00;0.00;;;19.20;99.90;;;;;;5054654;28;20025;-74
2022/08/28 00:07:53;;;;;;;0.00;0.00;;;19.20;99.90;;;;;;5036743;28;20041;-74
2022/08/28 00:10:21;;;;;;;0.00;0.00;;;19.20;99.90;;;;;;5054824;28;20119;-74
2022/08/28 00:12:48;;;;;;;0.00;0.00;;;19.20;99.90;;;;;;5054575;28;20031;-73
2022/08/28 00:15:19;;;;;;;0.00;0.00;;;19.30;99.90;;;;;;5036530;28;20480;-74
2022/08/28 00:17:45;;;;;;;0.22;0.22;;;19.20;99.90;;;;;;5036618;28;20025;-74
2022/08/28 00:20:13;;;;;;;0.05;0.05;;;19.20;99.90;;;;;;5052946;28;20032;-74
2022/08/28 00:22:39;;;;;;;0.00;0.00;;;19.20;99.90;;;;;;5036511;28;20032;-74
2022/08/28 00:25:07;;;;;;;0.00;0.00;;;19.00;99.90;;;;;;5036299;28;20061;-73
2022/08/28 00:27:52;;;;;;;0.00;0.00;;;19.10;99.90;;;;;;5054423;28;20025;-74
2022/08/28 00:30:30;;;;;;;0.00;0.00;;;19.10;99.90;;;;;;5036605;28;20025;-73
2022/08/28 00:33:00;;;;;;;0.20;0.20;;;19.00;99.90;;;;;;5054242;28;20401;-73
2022/08/28 00:35:27;;;;;;;0.43;0.43;;;19.00;99.90;;;;;;5036243;28;20024;-74
2022/08/28 00:37:56;;;;;;;0.30;0.30;;;18.90;99.90;;;;;;5054157;28;20052;-73
2022/08/28 00:40:27;;;;;;;0.10;0.10;;;18.80;99.90;;;;;;5036357;28;20353;-73
2022/08/28 00:42:54;;;;;;;0.00;0.00;;;18.70;99.90;;;;;;5036103;28;20223;-73
2022/08/28 00:45:21;;;;;;;3.85;2.72;;;18.70;99.90;;;;;;5036029;28;20021;-74
2022/08/28 00:47:47;;;;;;;0.20;0.20;;;18.70;99.90;;;;;;5036282;28;20031;-73
2022/08/28 00:50:16;;;;;;;0.00;0.00;;;18.70;99.90;;;;;;5053876;28;20448;-74
2022/08/28 00:52:46;;;;;;;0.00;0.00;;;18.50;99.90;;;;;;5035916;28;20052;-74
2022/08/28 00:55:21;;;;;;;0.00;0.00;;;18.50;99.90;;;;;;5053767;28;20043;-73
2022/08/28 00:57:51;;;;;;;0.10;0.10;;;18.60;99.90;;;;;;5035852;28;20052;-74
2022/08/28 01:00:37;;;;;;;0.85;0.43;;;18.50;99.90;;;;;;5053672;28;20048;-73
2022/08/28 01:03:04;;;;;;;0.00;0.00;;;18.40;99.90;;;;;;5035792;28;20040;-74
2022/08/28 01:05:30;;;;;;;0.08;0.08;;;18.50;99.90;;;;;;5035756;28;20021;-73
2022/08/28 01:07:57;;;;;;;0.00;0.00;;;18.60;99.90;;;;;;5053581;28;20163;-74
2022/08/28 01:10:26;;;;;;;0.00;0.00;;;18.60;99.90;;;;;;5053498;28;20120;-73
2022/08/28 01:12:55;;;;;;;0.00;0.00;;;18.70;99.90;;;;;;5035688;28;20488;-74
2022/08/28 01:15:27;;;;;;;0.00;0.00;;;18.80;99.90;;;;;;5053463;28;20388;-74
2022/08/28 01:17:56;;;;;;;2.42;2.30;;;18.70;99.90;;;;;;5035971;28;20040;-74
2022/08/28 01:20:26;;;;;;;0.00;0.00;;;18.80;99.90;;;;;;5035648;28;20108;-73
2022/08/28 01:23:14;;;;;;;0.00;0.00;;;19.10;99.90;;;;;;5053217;28;20017;-74
2022/08/28 01:25:41;;;;;;;0.00;0.00;;;19.10;99.90;;;;;;5053098;28;20484;-73
2022/08/28 01:28:11;;;;;;;0.00;0.00;;;19.20;99.90;;;;;;5053233;28;20087;-74
2022/08/28 01:30:41;;;;;;;0.00;0.00;;;19.10;99.90;;;;;;5034360;28;20060;-74
2022/08/28 01:33:07;;;;;;;0.00;0.00;;;19.20;99.90;;;;;;5053127;28;20029;-74
2022/08/28 01:35:36;;;;;;;0.17;0.17;;;19.20;99.90;;;;;;5052852;28;20047;-74
2022/08/28 01:38:03;;;;;;;0.00;0.00;;;19.10;99.90;;;;;;5053039;28;20599;-74
2022/08/28 01:40:35;;;;;;;0.00;0.00;;;19.10;99.90;;;;;;5053107;28;20050;-74
2022/08/28 01:43:11;;;;;;;0.00;0.00;;;19.20;99.90;;;;;;5052896;28;20384;-73
2022/08/28 01:45:38;;;;;;;0.32;0.32;;;19.20;99.90;;;;;;5034994;28;20022;-74
2022/08/28 01:48:05;;;;;;;0.00;0.00;;;19.10;99.90;;;;;;5034951;28;20025;-74
2022/08/28 01:50:32;;;;;;;0.00;0.00;;;19.20;99.90;;;;;;5034927;28;20028;-74
2022/08/28 01:52:59;;;;;;;0.00;0.00;;;19.20;99.90;;;;;;5034774;28;20476;-74
2022/08/28 01:55:25;;;;;;;0.00;0.00;;;19.30;99.90;;;;;;5052602;28;20025;-74
2022/08/28 01:57:53;;;;;;;0.10;0.10;;;19.20;99.90;;;;;;5034874;28;20386;-74
2022/08/28 02:00:20;;;;;;;0.00;0.00;;;19.30;99.90;;;;;;5034858;28;20032;-73
2022/08/28 02:02:47;;;;;;;0.00;0.00;;;19.20;99.90;;;;;;5034535;28;20536;-74
2022/08/28 02:05:13;;;;;;;0.00;0.00;;;19.30;99.90;;;;;;5018059;28;20035;-74
2022/08/28 02:07:39;;;;;;;0.00;0.00;;;19.20;99.90;;;;;;5034480;28;20032;-74
2022/08/28 02:10:08;;;;;;;0.00;0.00;;;19.30;99.90;;;;;;5052495;28;20044;-73
2022/08/28 02:12:34;;;;;;;0.20;0.20;;;19.30;99.90;;;;;;5018048;28;20021;-74
2022/08/28 02:15:00;;;;;;;0.00;0.00;;;19.40;99.90;;;;;;5052111;28;20377;-74
2022/08/28 02:17:26;;;;;;;0.00;0.00;;;19.40;99.90;;;;;;5034536;28;20027;-74
2022/08/28 02:19:52;;;;;;;0.00;0.00;;;19.40;99.90;;;;;;5052499;28;20412;-74
2022/08/28 02:22:17;;;;;;;0.00;0.00;;;19.40;99.90;;;;;;5034405;28;20025;-74
2022/08/28 02:24:44;;;;;;;0.00;0.00;;;19.40;99.90;;;;;;5034545;28;20016;-74
2022/08/28 02:27:09;;;;;;;0.00;0.00;;;19.20;99.90;;;;;;5034087;28;20017;-74
2022/08/28 02:29:35;;;;;;;0.00;0.00;;;19.20;99.90;;;;;;5052191;28;20104;-74
2022/08/28 02:32:01;;;;;;;0.00;0.00;;;19.40;99.90;;;;;;5052033;28;20433;-74
2022/08/28 02:34:27;;;;;;;0.00;0.00;;;19.30;99.90;;;;;;5052088;28;20039;-73
2022/08/28 02:36:52;;;;;;;0.30;0.30;;;19.20;99.90;;;;;;5051867;28;20060;-74
2022/08/28 02:39:18;;;;;;;0.00;0.00;;;19.30;99.90;;;;;;5052185;28;20476;-74
2022/08/28 02:41:44;;;;;;;0.00;0.00;;;19.10;99.90;;;;;;5051532;28;20401;-74
2022/08/28 02:44:10;;;;;;;0.00;0.00;;;19.20;99.90;;;;;;5052180;28;20091;-74
2022/08/28 02:46:35;;;;;;;0.20;0.20;;;19.30;99.90;;;;;;5033924;28;20031;-74
2022/08/28 02:49:01;;;;;;;0.00;0.00;;;19.20;99.90;;;;;;5051974;28;20025;-74
2022/08/28 02:51:32;;;;;;;0.00;0.00;;;19.30;99.90;;;;;;5034197;28;20025;-73
2022/08/28 02:53:58;;;;;;;0.22;0.22;;;19.20;99.90;;;;;;5034098;28;20028;-74
2022/08/28 02:56:24;;;;;;;0.00;0.00;;;19.10;99.90;;;;;;5033809;28;20024;-74
2022/08/28 02:58:50;;;;;;;0.00;0.00;;;19.00;99.90;;;;;;5017430;28;20051;-74
2022/08/28 03:01:16;;;;;;;0.17;0.17;;;19.10;99.90;;;;;;5051654;28;20068;-73
2022/08/28 03:03:42;;;;;;;0.00;0.00;;;19.00;99.90;;;;;;5033964;28;20473;-73
2022/08/28 03:06:10;;;;;;;0.00;0.00;;;18.60;99.90;;;;;;5051534;28;20021;-73
2022/08/28 03:08:36;;;;;;;0.00;0.00;;;18.60;99.90;;;;;;5051549;28;20029;-73
2022/08/28 03:11:02;;;;;;;0.00;0.00;;;18.60;99.90;;;;;;5017256;28;20028;-73
2022/08/28 03:13:28;;;;;;;0.25;0.17;;;18.70;99.90;;;;;;5051645;28;20029;-73
2022/08/28 03:15:56;;;;;;;0.20;0.20;;;18.60;99.90;;;;;;5016924;28;20183;-74
2022/08/28 03:18:23;;;;;;;0.00;0.00;;;18.60;99.90;;;;;;5051685;28;20021;-74
2022/08/28 03:20:48;;;;;;;0.00;0.00;;;18.70;99.90;;;;;;5017550;28;20021;-74
2022/08/28 03:23:26;;;;;;;0.03;0.03;;;18.60;99.90;;;;;;5033553;28;20024;-74
2022/08/28 03:25:55;;;;;;;0.55;0.55;;;18.60;99.90;;;;;;5051448;28;20048;-73
2022/08/28 03:28:21;;;;;;;0.40;0.40;;;18.70;99.90;;;;;;5033809;28;20096;-74
2022/08/28 03:30:47;;;;;;;1.00;0.88;;;18.40;99.90;;;;;;5051456;28;20160;-74
2022/08/28 03:33:13;;;;;;;0.15;0.05;;;18.30;99.90;;;;;;5051458;28;20393;-73
2022/08/28 03:35:39;;;;;;;1.77;0.55;;;18.20;99.90;;;;;;5051274;28;20032;-74
2022/08/28 03:38:05;;;;;;;0.45;0.20;;;18.10;99.90;;;;;;5051428;28;20025;-74
2022/08/28 03:40:31;;;;;;;0.00;0.00;;;18.10;99.90;;;;;;5033506;28;20480;-74
2022/08/28 03:42:57;;;;;;;0.00;0.00;;;18.20;99.90;;;;;;5033553;28;20021;-73
2022/08/28 03:45:23;;;;;;;0.00;0.00;;;18.20;99.90;;;;;;5051216;28;20057;-74
2022/08/28 03:47:49;;;;;;;0.00;0.00;;;18.10;99.90;;;;;;5052030;28;20099;-74
2022/08/28 03:50:16;;;;;;;0.00;0.00;;;18.20;99.90;;;;;;5052522;28;20021;-74
2022/08/28 03:52:43;;;;;;;0.80;0.65;;;18.10;99.90;;;;;;5050858;28;20428;-73
2022/08/28 03:55:11;;;;;;;0.00;0.00;;;18.00;99.90;;;;;;5054477;28;20028;-74
2022/08/28 03:57:37;;;;;;;1.45;1.25;;;17.90;99.90;;;;;;5036946;28;20024;-73
2022/08/28 04:00:06;;;;;;;0.10;0.10;;;17.90;99.90;;;;;;5054867;28;20100;-73
2022/08/28 04:02:32;;;;;;;0.00;0.00;;;17.90;99.90;;;;;;5054918;28;20027;-74
2022/08/28 04:04:58;;;;;;;0.68;0.52;;;17.90;99.90;;;;;;5036584;28;20392;-74
2022/08/28 04:07:23;;;;;;;0.00;0.00;;;17.90;99.90;;;;;;5036858;28;20107;-74
2022/08/28 04:09:49;;;;;;;0.00;0.00;;;17.90;99.90;;;;;;5054633;28;20064;-74
2022/08/28 04:12:15;;;;;;;0.05;0.05;;;18.10;99.90;;;;;;5036836;28;20052;-74
2022/08/28 04:14:41;;;;;;;0.20;0.20;;;18.00;99.90;;;;;;5054724;28;20159;-74
2022/08/28 04:17:07;;;;;;;0.40;0.40;;;18.00;99.90;;;;;;5020138;28;20048;-74
2022/08/28 04:19:33;;;;;;;0.00;0.00;;;18.00;99.90;;;;;;5036765;28;20519;-74
2022/08/28 04:22:00;;;;;;;0.00;0.00;;;18.20;99.90;;;;;;5054530;28;20024;-74
2022/08/28 04:24:26;;;;;;;0.28;0.28;;;18.20;99.90;;;;;;5020209;28;20028;-73
2022/08/28 04:26:52;;;;;;;0.00;0.00;;;18.30;99.90;;;;;;5036403;28;20426;-74
2022/08/28 04:29:18;;;;;;;0.00;0.00;;;18.40;99.90;;;;;;5054403;28;20100;-74
2022/08/28 04:31:44;;;;;;;0.00;0.00;;;18.60;99.90;;;;;;5054131;28;20083;-74
2022/08/28 04:34:10;;;;;;;0.75;0.75;;;18.70;99.90;;;;;;5035738;28;20036;-74
2022/08/28 04:36:36;;;;;;;0.00;0.00;;;18.60;99.90;;;;;;5054033;28;20047;-74
2022/08/28 04:39:04;;;;;;;0.00;0.00;;;18.60;99.90;;;;;;5019673;28;20028;-74
2022/08/28 04:41:31;;;;;;;0.00;0.00;;;18.70;99.90;;;;;;5054075;28;20028;-74
2022/08/28 04:43:57;;;;;;;0.00;0.00;;;18.70;99.90;;;;;;5036327;28;20477;-74
2022/08/28 04:46:23;;;;;;;0.00;0.00;;;18.80;99.90;;;;;;5035790;28;20480;-74
2022/08/28 04:48:49;;;;;;;0.00;0.00;;;18.60;99.90;;;;;;5036137;28;20029;-74
2022/08/28 04:51:15;;;;;;;0.00;0.00;;;18.50;99.90;;;;;;5036103;28;20021;-74
2022/08/28 04:53:43;;;;;;;0.00;0.00;;;18.60;99.90;;;;;;5036040;28;20481;-74
2022/08/28 04:56:11;;;;;;;0.00;0.00;;;18.50;99.90;;;;;;5019267;28;20028;-74
2022/08/28 04:58:38;;;;;;;0.00;0.00;;;18.50;99.90;;;;;;5053867;28;20025;-73
2022/08/28 05:01:23;;;;;;;0.00;0.00;;;18.60;99.90;;;;;;5053830;28;20044;-74
2022/08/28 05:03:53;;;;;;;0.00;0.00;;;18.60;99.90;;;;;;5053831;28;20024;-73
2022/08/28 05:06:20;;;;;;;0.22;0.22;;;18.50;99.90;;;;;;5053395;28;20018;-74
2022/08/28 05:08:46;;;;;;;0.43;0.43;;;18.30;99.90;;;;;;5035813;28;20228;-74
2022/08/28 05:11:20;;;;;;;0.00;0.00;;;18.30;99.90;;;;;;5053190;28;20390;-74
2022/08/28 05:13:47;;;;;;;0.20;0.20;;;18.40;99.90;;;;;;5053589;28;20032;-73
2022/08/28 05:16:14;;;;;;;0.05;0.05;;;18.40;99.90;;;;;;5053515;28;20485;-73
2022/08/28 05:18:41;;;;;;;0.43;0.43;;;18.50;99.90;;;;;;5019204;28;20505;-74
2022/08/28 05:21:21;;;;;;;0.35;0.35;;;18.40;99.90;;;;;;5035515;28;20546;-74
2022/08/28 05:23:48;;;;;;;0.00;0.00;;;18.30;99.90;;;;;;5035698;28;20022;-74
2022/08/28 05:26:16;;;;;;;0.00;0.00;;;18.40;99.90;;;;;;5035328;28;20495;-74
2022/08/28 05:28:42;;;;;;;0.00;0.00;;;18.40;99.90;;;;;;5053233;28;20103;-74
2022/08/28 05:31:16;;;;;;;0.25;0.25;;;18.40;99.90;;;;;;5018797;28;20069;-74
2022/08/28 05:33:46;;;;;;;0.00;0.00;;;18.40;99.90;;;;;;5035533;28;20028;-74
2022/08/28 05:36:13;;;;;;;0.63;0.55;;;18.40;99.90;;;;;;5035035;28;20029;-74
2022/08/28 05:38:40;;;;;;;0.00;0.00;;;18.30;99.90;;;;;;5053224;28;20021;-72
2022/08/28 05:41:07;;;;;;;0.00;0.00;;;18.40;99.90;;;;;;5052825;28;20017;-74
2022/08/28 05:43:33;;;;;;;0.00;0.00;;;18.60;99.90;;;;;;5052970;28;20503;-74
2022/08/28 05:46:03;;;;;;;0.10;0.10;;;18.50;99.90;;;;;;5052760;28;20029;-74
2022/08/28 05:48:30;;;;;;;0.00;0.00;;;18.40;99.90;;;;;;5034936;28;20025;-73
2022/08/28 05:51:12;;;;;;;0.00;0.00;;;18.40;99.90;;;;;;5052849;28;20051;-74
2022/08/28 05:53:40;;;;;;;0.00;0.00;;;18.40;99.90;;;;;;5034858;28;20049;-73
2022/08/28 05:56:13;;;;;;;0.52;0.52;;;18.40;99.90;;;;;;5034675;28;20033;-74
2022/08/28 05:58:39;;;;;;;0.05;0.05;;;18.50;99.90;;;;;;5052717;28;20040;-74
2022/08/28 06:01:18;;;;;;;0.00;0.00;;;18.60;99.90;;;;;;5034729;28;20021;-74
2022/08/28 06:03:50;;;;;;;0.77;0.43;;;18.70;99.90;;;;;;5052681;28;20384;-74
2022/08/28 06:06:16;;;;;;;0.00;0.00;;;18.70;99.90;;;;;;5034401;28;20420;-73
2022/08/28 06:08:41;;;;;;;0.00;0.00;;;18.50;99.90;;;;;;5052473;28;20028;-74
2022/08/28 06:11:07;;;;;;;0.00;0.00;;;18.60;99.90;;;;;;5052000;28;20401;-73
2022/08/28 06:13:34;;;;;;;0.00;0.00;;;18.60;99.90;;;;;;5057242;28;20477;-73
2022/08/28 06:16:00;;;;;;;0.30;0.30;;;18.80;99.90;;;;;;5051584;28;20017;-72
2022/08/28 06:18:26;;;;;;;0.00;0.00;;;18.70;99.90;;;;;;5034472;28;20079;-73
2022/08/28 06:20:53;;;;;;;0.00;0.00;;;18.70;99.90;;;;;;5046409;28;20014;-73
2022/08/28 06:23:21;;;;;;;0.00;0.00;;;18.70;99.90;;;;;;5023154;28;20057;-73
2022/08/28 06:25:48;;;;;;;0.00;0.00;;;18.80;99.90;;;;;;5045570;28;20441;-73
2022/08/28 06:28:17;;;;;;;0.00;0.00;;;18.90;99.90;;;;;;5052094;28;20298;-73
2022/08/28 06:30:44;;;;;;;0.00;0.00;;;18.80;99.90;;;;;;5051830;28;20469;-73
2022/08/28 06:33:11;;;;;;;0.00;0.00;;;18.90;99.90;;;;;;5033993;28;20032;-74
2022/08/28 06:35:42;;;;;;;0.00;0.00;;;19.00;99.90;;;;;;5033876;28;20108;-74
2022/08/28 06:38:09;;;;;;;0.00;0.00;;;19.00;99.90;;;;;;5051761;28;20100;-73
2022/08/28 06:40:48;;;;;;;0.00;0.00;;;19.10;99.90;;;;;;5051873;28;20017;-73
2022/08/28 06:43:14;;;;;;;0.20;0.20;;;19.20;99.90;;;;;;5034017;28;20025;-73
2022/08/28 06:45:45;;;;;;;0.00;0.00;;;19.20;99.90;;;;;;5034267;28;20021;-74
2022/08/28 06:48:18;;;;;;;0.00;0.00;;;19.20;99.90;;;;;;5052108;28;20028;-73
2022/08/28 06:50:48;;;;;;;0.35;0.35;;;19.30;99.90;;;;;;5033949;28;20036;-73
2022/08/28 06:53:15;;;;;;;1.75;1.25;;;19.30;99.90;;;;;;5051780;28;20036;-73
2022/08/28 06:55:41;;;;;;;0.00;0.00;;;19.20;99.90;;;;;;5037489;28;20417;-73
2022/08/28 06:58:08;;;;;;;0.17;0.17;;;19.10;99.90;;;;;;5031788;28;20026;-73
2022/08/28 07:00:35;;;;;;;0.10;0.10;;;18.90;99.90;;;;;;5031924;28;20021;-73
2022/08/28 07:03:01;;;;;;;2.08;1.98;;;18.80;99.90;;;;;;5014095;28;20048;-73
2022/08/28 07:05:27;;;;;;;0.30;0.30;;;18.90;99.90;;;;;;5031643;28;20022;-73
2022/08/28 07:07:54;;;;;;;0.38;0.35;;;19.00;99.90;;;;;;5031694;28;20060;-73
2022/08/28 07:10:20;;;;;;;0.00;0.00;;;19.00;99.90;;;;;;5031716;28;20088;-73
2022/08/28 07:12:49;;;;;;;0.20;0.20;;;19.00;99.90;;;;;;5031586;28;20032;-73
2022/08/28 07:15:16;;;;;;;0.00;0.00;;;19.20;99.90;;;;;;5049051;28;20013;-73
2022/08/28 07:17:43;;;;;;;0.03;0.03;;;19.40;99.90;;;;;;5034386;28;20029;-74
2022/08/28 07:20:10;;;;;;;0.10;0.10;;;19.50;99.90;;;;;;5055352;28;20025;-74
2022/08/28 07:22:37;;;;;;;0.08;0.08;;;19.80;99.90;;;;;;5058752;28;20017;-73
2022/08/28 07:25:03;;;;;;;0.75;0.75;;;19.70;99.90;;;;;;5016872;28;20033;-74
2022/08/28 07:27:30;;;;;;;0.00;0.00;;;19.70;99.90;;;;;;5017873;28;20078;-73
2022/08/28 07:29:57;;;;;;;0.10;0.10;;;19.60;99.90;;;;;;5055518;28;20032;-73
2022/08/28 07:32:23;;;;;;;0.30;0.30;;;19.50;99.90;;;;;;5042106;28;20048;-73
2022/08/28 07:34:49;;;;;;;1.00;0.55;;;19.50;99.90;;;;;;5075291;28;20032;-73
2022/08/28 07:37:16;;;;;;;0.63;0.63;;;19.50;99.90;;;;;;5075406;28;20480;-73
2022/08/28 07:39:43;;;;;;;0.00;0.00;;;19.50;99.90;;;;;;5022224;28;20543;-73
2022/08/28 07:42:09;;;;;;;0.00;0.00;;;19.50;99.90;;;;;;5037166;28;20024;-73
2022/08/28 07:44:53;;;;;;;1.75;0.57;;;19.50;99.90;;;;;;5037716;28;20083;-74
2022/08/28 07:47:19;;;;;;;1.17;0.90;;;19.60;99.90;;;;;;5039707;28;20021;-74
2022/08/28 07:49:45;;;;;;;0.47;0.47;;;19.60;99.90;;;;;;5055235;28;20088;-74
2022/08/28 07:52:11;;;;;;;0.00;0.00;;;19.50;99.90;;;;;;5055048;28;20100;-73
2022/08/28 07:54:39;;;;;;;0.63;0.63;;;19.50;99.90;;;;;;5036974;28;20024;-73
2022/08/28 07:57:08;;;;;;;0.00;0.00;;;19.50;99.90;;;;;;5022198;28;20467;-72
2022/08/28 07:59:36;;;;;;;0.10;0.10;;;19.60;99.90;;;;;;5035026;28;20028;-71
2022/08/28 08:02:02;;;;;;;0.30;0.30;;;19.50;99.90;;;;;;5034905;28;20469;-72
2022/08/28 08:04:28;;;;;;;0.03;0.03;;;19.30;99.90;;;;;;5034966;28;20025;-72
2022/08/28 08:06:53;;;;;;;0.00;0.00;;;19.50;99.90;;;;;;5016675;28;20029;-72
2022/08/28 08:09:20;;;;;;;0.10;0.10;;;19.70;99.90;;;;;;5016793;28;20053;-72
2022/08/28 08:11:47;;;;;;;0.80;0.55;;;19.70;99.90;;;;;;5017197;28;20061;-73
2022/08/28 08:14:14;;;;;;;0.00;0.00;;;19.70;99.90;;;;;;5034633;28;20116;-72
2022/08/28 08:16:42;;;;;;;0.10;0.10;;;19.80;99.90;;;;;;5054354;28;20032;-73
2022/08/28 08:19:12;;;;;;;0.13;0.13;;;20.00;99.90;;;;;;5019981;28;20392;-73
2022/08/28 08:21:40;;;;;;;0.00;0.00;;;20.10;99.90;;;;;;5020120;28;20048;-72
2022/08/28 08:24:06;;;;;;;0.30;0.30;;;20.20;99.90;;;;;;5054463;28;20032;-73
2022/08/28 08:26:32;;;;;;;0.10;0.10;;;20.20;99.90;;;;;;5054340;28;20480;-72
2022/08/28 08:28:59;;;;;;;0.00;0.00;;;20.20;99.90;;;;;;5036590;28;20036;-72
2022/08/28 08:31:28;;;;;;;1.10;1.10;;;20.30;99.90;;;;;;5054094;28;20035;-73
2022/08/28 08:33:56;;;;;;;0.08;0.08;;;20.30;99.90;;;;;;5054166;28;20480;-72
2022/08/28 08:36:24;;;;;;;0.10;0.10;;;20.20;99.90;;;;;;5036198;28;20060;-72
2022/08/28 08:38:51;;;;;;;0.03;0.03;;;20.30;99.90;;;;;;5053745;28;20040;-72
2022/08/28 08:41:30;;;;;;;0.00;0.00;;;20.60;99.90;;;;;;5035824;28;20116;-72
2022/08/28 08:44:08;;;;;;;0.32;0.30;;;20.60;99.90;;;;;;5053957;28;20029;-73
2022/08/28 08:46:48;;;;;;;0.55;0.55;;;20.70;99.90;;;;;;5035051;28;20021;-72
2022/08/28 08:49:19;;;;;;;0.00;0.00;;;20.50;99.90;;;;;;5048528;28;20432;-72
2022/08/28 08:52:29;;;;;;;0.80;0.75;;;20.50;99.90;;;;;;5053742;28;20036;-73
2022/08/28 08:55:02;;;;;;;0.35;0.35;;;20.70;99.90;;;;;;5019076;28;20040;-72
2022/08/28 08:57:30;;;;;;;0.82;0.70;;;20.70;99.90;;;;;;5034559;28;20032;-72
2022/08/28 08:59:56;;;;;;;1.00;1.00;;;20.70;99.90;;;;;;5053107;28;20029;-72
2022/08/28 09:02:27;;;;;;;0.47;0.30;;;20.60;99.90;;;;;;5053260;28;20584;-73
2022/08/28 09:05:11;;;;;;;0.35;0.35;;;20.70;99.90;;;;;;5035672;28;20400;-73
2022/08/28 09:07:55;;;;;;;0.10;0.10;;;20.90;99.90;;;;;;5053449;28;20025;-72
2022/08/28 09:10:23;;;;;;;0.00;0.00;;;21.10;99.90;;;;;;5053626;28;20040;-72
2022/08/28 09:13:24;;;;;;;0.08;0.08;;;21.10;99.90;;;;;;5053590;28;20029;-72
2022/08/28 09:15:51;;;;;;;0.32;0.30;;;21.10;99.90;;;;;;5053281;28;20032;-72
2022/08/28 09:18:30;;;;;;;0.25;0.25;;;21.00;99.90;;;;;;5053262;28;20076;-73
2022/08/28 09:20:57;;;;;;;0.00;0.00;;;21.00;99.90;;;;;;5053460;28;20021;-73
2022/08/28 09:23:26;;;;;;;0.10;0.10;;;21.00;99.90;;;;;;5053350;28;20033;-73
2022/08/28 09:26:10;;;;;;;0.47;0.22;;;21.00;99.90;;;;;;5035308;28;20388;-72
2022/08/28 09:28:39;;;;;;;0.10;0.10;;;20.90;99.90;;;;;;5035304;28;20477;-72
2022/08/28 09:31:35;;;;;;;0.00;0.00;;;20.70;99.90;;;;;;5053431;28;20028;-72
2022/08/28 09:34:24;;;;;;;0.30;0.30;;;20.90;99.90;;;;;;5030514;28;20581;-72
2022/08/28 09:36:52;;;;;;;0.03;0.03;;;21.10;99.90;;;;;;5052881;28;20028;-73
2022/08/28 09:39:30;;;;;;;0.05;0.05;;;21.10;99.90;;;;;;5053047;28;20123;-73
2022/08/28 09:45:00;;;;;;;0.70;0.68;;;21.10;99.90;;;;;;5052651;28;20022;-72
2022/08/28 09:47:57;;;;;;;1.30;0.70;;;20.80;99.90;;;;;;5052718;28;20021;-74
2022/08/28 09:50:30;;;;;;;0.00;0.00;;;20.20;99.90;;;;;;5034657;28;20030;-73
2022/08/28 09:53:15;;;;;;;0.10;0.10;;;19.60;99.90;;;;;;5051960;28;20021;-73
2022/08/28 09:55:50;;;;;;;0.00;0.00;;;19.50;99.90;;;;;;5052456;28;20020;-72
2022/08/28 09:58:16;;;;;;;0.00;0.00;;;19.30;99.90;;;;;;5052535;28;20488;-72
2022/08/28 10:00:54;;;;;;;0.00;0.00;;;19.20;99.90;;;;;;5034938;28;20021;-73
2022/08/28 10:03:32;;;;;;;0.00;0.00;;;19.00;99.90;;;;;;5034666;28;20025;-73
2022/08/28 10:05:58;;;;;;;0.00;0.00;;;18.80;99.90;;;;;;5052446;28;20047;-73
2022/08/28 10:08:32;;;;;;;0.63;0.45;;;18.70;99.90;;;;;;5076107;23;20076;-75
2022/08/28 10:11:09;;;;;;;0.00;0.00;;;18.60;99.90;;;;;;5054521;28;20028;-74
2022/08/28 10:13:47;;;;;;;0.00;0.00;;;18.60;99.90;;;;;;5065630;28;20033;-75
2022/08/28 10:16:19;;;;;;;0.00;0.00;;;18.80;99.90;;;;;;5073124;28;20017;-75
2022/08/28 10:18:53;;;;;;;0.00;0.00;;;18.90;99.90;;;;;;5072836;28;20112;-75
2022/08/28 10:21:28;;;;;;;0.00;0.00;;;18.90;99.90;;;;;;5038434;28;20107;-75
2022/08/28 10:24:14;;;;;;;0.00;0.00;;;18.90;99.90;;;;;;5055344;28;20479;-73
2022/08/28 10:26:54;;;;;;;0.00;0.00;;;19.00;99.90;;;;;;5032626;28;20052;-73
2022/08/28 10:29:41;;;;;;;0.75;0.75;;;19.10;99.90;;;;;;5063697;28;20021;-73
2022/08/28 10:32:15;;;;;;;0.00;0.00;;;19.10;99.90;;;;;;5052127;28;20648;-73
2022/08/28 10:35:05;;;;;;;0.00;0.00;;;19.20;99.90;;;;;;5056390;28;20039;-73
2022/08/28 10:37:54;;;;;;;0.10;0.10;;;19.40;99.90;;;;;;5046791;28;20024;-73
2022/08/28 10:40:39;;;;;;;3.17;0.70;;;19.60;99.90;;;;;;5052558;28;20052;-74
2022/08/28 10:43:14;;;;;;;0.00;0.00;;;19.60;99.90;;;;;;5054275;28;20035;-73
2022/08/28 10:45:40;;;;;;;0.10;0.10;;;19.50;99.90;;;;;;5054023;28;20020;-73
2022/08/28 10:48:16;;;;;;;0.13;0.13;;;19.40;99.90;;;;;;5072098;28;20078;-73
2022/08/28 10:50:43;;;;;;;0.10;0.10;;;19.50;99.90;;;;;;5054358;28;20016;-73
2022/08/28 10:53:15;;;;;;;0.00;0.00;;;19.50;99.90;;;;;;5035116;28;20056;-73
2022/08/28 10:55:50;;;;;;;;;;;19.60;99.90;;;;;;5063766;28;20021;-74
2022/08/28 10:58:16;;;;;;;0.00;0.00;;;19.70;99.90;;;;;;5071957;28;19954;-73
2022/08/28 11:00:42;;;;;;;0.00;0.00;;;19.70;99.90;;;;;;5072343;28;20060;-73
2022/08/28 11:03:17;;;;;;;0.00;0.00;;;19.80;99.90;;;;;;5076042;28;20133;-73
2022/08/28 11:05:51;;;;;;;0.00;0.00;;;19.70;99.90;;;;;;5079025;28;20027;-73
2022/08/28 11:08:28;;;;;;;0.00;0.00;;;19.70;99.90;;;;;;5044155;28;20388;-73
2022/08/28 11:10:57;;;;;;;0.00;0.00;;;20.00;99.90;;;;;;5060774;28;20388;-73
2022/08/28 11:13:54;;;;;;;0.00;0.00;;;20.10;99.90;;;;;;5078230;28;20086;-73
2022/08/28 11:16:28;;;;;;;0.00;0.00;;;19.90;99.90;;;;;;5078344;28;20757;-73
2022/08/28 11:19:04;;;;;;;0.05;0.05;;;20.00;99.90;;;;;;5078640;28;20028;-73
2022/08/28 11:21:49;;;;;;;0.00;0.00;;;20.10;99.90;;;;;;5060460;28;20021;-73
2022/08/28 11:24:27;;;;;;;0.00;0.00;;;20.10;99.90;;;;;;5060559;28;20048;-73
2022/08/28 11:27:18;;;;;;;0.00;0.00;;;20.10;99.90;;;;;;5060646;28;20060;-73
2022/08/28 11:30:07;;;;;;;0.00;0.00;;;20.10;99.90;;;;;;5078787;28;20048;-73
2022/08/28 11:32:33;;;;;;;0.00;0.00;;;20.10;99.90;;;;;;5078958;28;20020;-73
2022/08/28 11:35:25;;;;;;;0.00;0.00;;;20.30;99.90;;;;;;5078561;28;20502;-74
2022/08/28 11:37:53;;;;;;;0.45;0.45;;;20.30;99.90;;;;;;5078834;28;20100;-73
2022/08/28 11:40:31;;;;;;;5.47;3.40;;;20.30;99.90;;;;;;5060644;28;20055;-73
2022/08/28 11:43:15;;;;;;;1.27;1.05;;;20.40;99.90;;;;;;5060785;28;20021;-73
2022/08/28 11:45:46;;;;;;;0.03;0.03;;;20.40;99.90;;;;;;5044087;28;20037;-75
2022/08/28 11:48:21;;;;;;;;;;;20.20;99.90;;;;;;5061232;28;20095;-74
2022/08/28 11:50:57;;;;;;;1.90;1.25;;;20.00;99.90;;;;;;5078523;28;19978;-75
2022/08/28 11:53:22;;;;;;;0.10;0.10;;;19.90;99.90;;;;;;5078304;28;20023;-75
2022/08/28 11:56:04;;;;;;;0.00;0.00;;;20.00;99.90;;;;;;5077968;28;20107;-75
2022/08/28 11:58:34;;;;;;;;;;;20.10;99.90;;;;;;5061242;28;20036;-74
2022/08/28 12:01:08;;;;;;;0.08;0.08;;;20.30;99.90;;;;;;5060859;28;19904;-74
2022/08/28 12:03:43;;;;;;;0.00;0.00;;;20.30;99.90;;;;;;5078326;28;20356;-74
2022/08/28 12:06:10;;;;;;;0.00;0.00;;;20.00;99.90;;;;;;5060198;28;20027;-74
2022/08/28 12:08:45;;;;;;;0.43;0.43;;;20.20;99.90;;;;;;5078317;28;20107;-74
2022/08/28 12:11:40;;;;;;;0.00;0.00;;;20.00;99.90;;;;;;5078074;28;20078;-74
2022/08/28 12:14:07;;;;;;;0.93;0.60;;;19.90;99.90;;;;;;5058382;28;20163;-74
2022/08/28 12:16:57;;;;;;;0.10;0.10;;;19.70;99.90;;;;;;5056733;28;20434;-74
2022/08/28 12:19:44;;;;;;;0.00;0.00;;;19.70;99.90;;;;;;5057076;28;20024;-74
2022/08/28 12:22:13;;;;;;;0.10;0.10;;;19.80;99.90;;;;;;5047816;28;20476;-74
2022/08/28 12:25:02;;;;;;;0.00;0.00;;;19.90;99.90;;;;;;5037678;28;20021;-75
2022/08/28 12:27:30;;;;;;;0.43;0.43;;;20.00;99.90;;;;;;5054694;28;20029;-74
2022/08/28 12:29:58;;;;;;;0.00;0.00;;;20.10;99.90;;;;;;5036623;28;20127;-75
2022/08/28 12:32:46;;;;;;;0.00;0.00;;;19.90;99.90;;;;;;5036704;28;20029;-74
2022/08/28 12:35:16;;;;;;;1.50;1.40;;;20.00;99.90;;;;;;5020252;28;20020;-74
2022/08/28 12:37:45;;;;;;;2.85;1.35;;;20.00;99.90;;;;;;5040108;28;20043;-74
2022/08/28 12:40:17;;;;;;;0.00;0.00;;;19.90;99.90;;;;;;5075615;28;20028;-77
2022/08/28 12:43:01;;;;;;;0.68;0.68;;;20.00;99.90;;;;;;5079987;28;20480;-78
2022/08/28 12:45:36;;;;;;;0.00;0.00;;;19.90;99.90;;;;;;5065170;28;20024;-77
2022/08/28 12:48:24;;;;;;;0.77;0.63;;;19.90;99.90;;;;;;5044780;28;20024;-77
2022/08/28 12:50:58;;;;;;;0.00;0.00;;;19.90;99.90;;;;;;5027512;28;20029;-77
2022/08/28 12:53:24;;;;;;;0.00;0.00;;;19.70;99.90;;;;;;5063938;28;20029;-77
2022/08/28 12:55:50;;;;;;;0.00;0.00;;;19.80;99.90;;;;;;5095557;28;20492;-77
2022/08/28 12:58:34;;;;;;;0.13;0.13;;;19.90;99.90;;;;;;5077443;28;20028;-76
2022/08/28 13:01:07;;;;;;;0.00;0.00;;;20.10;99.90;;;;;;5078327;28;20016;-77
2022/08/28 13:03:40;;;;;;;0.00;0.00;;;20.10;99.90;;;;;;5077896;28;20066;-77
2022/08/28 13:06:08;;;;;;;0.20;0.20;;;20.10;99.90;;;;;;5095548;28;20035;-77
2022/08/28 13:08:35;;;;;;;0.00;0.00;;;20.20;99.90;;;;;;5103796;28;20035;-77